createdAt,value
2023-02-27T00:01:19.182Z,1.50
2023-02-27T00:03:46.586Z,1.65
2023-02-27T00:06:13.071Z,1.52
2023-02-27T00:08:39.819Z,1.05
2023-02-27T00:11:06.465Z,1.42
2023-02-27T00:13:32.986Z,1.52
2023-02-27T00:15:59.507Z,3.03
2023-02-27T00:18:26.056Z,1.38
2023-02-27T00:20:52.650Z,0.80
2023-02-27T00:23:19.134Z,1.02
2023-02-27T00:25:45.849Z,1.58
2023-02-27T00:28:12.331Z,1.20
2023-02-27T00:30:38.849Z,1.50
2023-02-27T00:33:05.397Z,1.30
2023-02-27T00:35:31.896Z,1.13
2023-02-27T00:37:58.362Z,1.35
2023-02-27T00:40:27.890Z,1.08
2023-02-27T00:42:54.350Z,1.50
2023-02-27T00:45:20.905Z,2.35
2023-02-27T00:47:47.554Z,4.97
2023-02-27T00:50:14.619Z,1.00
2023-02-27T00:52:41.259Z,3.45
2023-02-27T00:55:08.202Z,1.90
2023-02-27T00:57:34.749Z,1.50
2023-02-27T01:00:01.495Z,1.60
2023-02-27T01:02:28.144Z,1.50
2023-02-27T01:04:54.689Z,1.73
2023-02-27T01:07:21.274Z,1.52
2023-02-27T01:09:47.843Z,1.52
2023-02-27T01:12:14.751Z,1.65
2023-02-27T01:14:41.295Z,1.30
2023-02-27T01:17:07.740Z,1.30
2023-02-27T01:19:34.316Z,1.45
2023-02-27T01:22:01.112Z,1.45
2023-02-27T01:24:27.583Z,1.15
2023-02-27T01:26:54.125Z,1.40
2023-02-27T01:29:20.695Z,1.40
2023-02-27T01:31:48.783Z,1.60
2023-02-27T01:34:15.529Z,4.05
2023-02-27T01:36:42.362Z,2.17
2023-02-27T01:39:09.248Z,1.17
2023-02-27T01:41:35.797Z,1.52
2023-02-27T01:44:06.955Z,1.40
2023-02-27T01:46:34.334Z,1.17
2023-02-27T01:49:21.133Z,1.92
2023-02-27T01:51:52.292Z,1.17
2023-02-27T01:54:20.654Z,2.55
2023-02-27T01:56:47.315Z,1.73
2023-02-27T01:59:14.898Z,1.33
2023-02-27T02:01:41.537Z,1.75
2023-02-27T02:04:11.045Z,1.45
2023-02-27T02:06:38.559Z,1.83
2023-02-27T02:09:05.854Z,1.30
2023-02-27T02:11:32.324Z,2.00
2023-02-27T02:14:00.114Z,2.55
2023-02-27T02:16:35.296Z,1.40
2023-02-27T02:19:20.412Z,3.03
2023-02-27T02:21:59.659Z,1.40
2023-02-27T02:24:50.368Z,1.45
2023-02-27T02:27:19.135Z,2.15
2023-02-27T02:29:57.885Z,1.65
2023-02-27T02:32:42.937Z,1.42
2023-02-27T02:35:09.443Z,2.85
2023-02-27T02:37:50.982Z,1.90
2023-02-27T02:40:37.733Z,1.23
2023-02-27T02:43:13.050Z,1.67
2023-02-27T02:45:50.069Z,1.70
2023-02-27T02:48:25.062Z,2.53
2023-02-27T02:51:18.066Z,3.47
2023-02-27T02:53:55.915Z,2.83
2023-02-27T02:56:26.153Z,1.95
2023-02-27T02:58:58.143Z,1.60
2023-02-27T03:01:31.683Z,1.67
2023-02-27T03:04:16.945Z,1.30
2023-02-27T03:06:46.593Z,1.98
2023-02-27T03:09:33.274Z,3.00
2023-02-27T03:11:59.896Z,1.48
2023-02-27T03:14:32.442Z,1.52
2023-02-27T03:17:01.635Z,1.92
2023-02-27T03:19:31.259Z,1.40
2023-02-27T03:22:09.264Z,1.77
2023-02-27T03:24:43.480Z,1.58
2023-02-27T03:27:10.256Z,2.28
2023-02-27T03:29:44.009Z,1.17
2023-02-27T03:32:18.917Z,1.40
2023-02-27T03:34:45.942Z,2.40
2023-02-27T03:37:21.627Z,1.45
2023-02-27T03:39:53.021Z,2.00
2023-02-27T03:42:19.449Z,2.28
2023-02-27T03:44:54.921Z,1.35
2023-02-27T03:47:21.700Z,2.65
2023-02-27T03:49:51.150Z,1.30
2023-02-27T03:52:18.884Z,4.80
2023-02-27T03:54:57.952Z,1.60
2023-02-27T03:57:24.604Z,2.60
2023-02-27T03:59:51.383Z,1.40
2023-02-27T04:02:17.921Z,1.77
2023-02-27T04:04:44.493Z,2.05
2023-02-27T04:07:24.773Z,1.70
2023-02-27T04:10:10.384Z,2.60
2023-02-27T04:12:39.935Z,3.53
2023-02-27T04:15:09.440Z,1.63
2023-02-27T04:17:45.197Z,1.55
2023-02-27T04:20:25.385Z,2.25
2023-02-27T04:22:55.050Z,1.52
2023-02-27T04:25:24.424Z,2.00
2023-02-27T04:27:50.865Z,2.20
2023-02-27T04:30:32.412Z,1.45
2023-02-27T04:32:58.889Z,3.38
2023-02-27T04:35:38.434Z,2.28
2023-02-27T04:38:11.054Z,1.40
2023-02-27T04:40:44.309Z,2.10
2023-02-27T04:43:12.491Z,1.67
2023-02-27T04:45:41.492Z,2.05
2023-02-27T04:48:17.061Z,2.42
2023-02-27T04:50:58.759Z,1.77
2023-02-27T04:53:34.816Z,2.78
2023-02-27T04:56:04.267Z,2.15
2023-02-27T04:58:36.586Z,1.58
2023-02-27T05:01:09.467Z,1.92
2023-02-27T05:03:38.777Z,2.42
2023-02-27T05:06:06.524Z,2.17
2023-02-27T05:08:38.948Z,1.38
2023-02-27T05:11:09.348Z,2.05
2023-02-27T05:13:39.872Z,3.58
2023-02-27T05:16:27.133Z,2.80
2023-02-27T05:18:54.413Z,2.40
2023-02-27T05:21:42.433Z,1.75
2023-02-27T05:24:22.476Z,2.40
2023-02-27T05:27:07.215Z,3.05
2023-02-27T05:29:43.829Z,1.33
2023-02-27T05:32:10.366Z,1.30
2023-02-27T05:34:41.475Z,1.65
2023-02-27T05:37:11.310Z,1.48
2023-02-27T05:39:39.144Z,3.67
2023-02-27T05:42:08.426Z,2.00
2023-02-27T05:44:37.538Z,2.45
2023-02-27T05:47:16.230Z,1.65
2023-02-27T05:49:45.640Z,1.90
2023-02-27T05:52:14.770Z,1.35
2023-02-27T05:54:53.655Z,2.55
2023-02-27T05:57:24.496Z,1.90
2023-02-27T05:59:57.784Z,1.85
2023-02-27T06:02:24.761Z,1.23
2023-02-27T06:04:51.387Z,1.77
2023-02-27T06:07:18.722Z,1.45
2023-02-27T06:09:45.496Z,2.67
2023-02-27T06:12:12.890Z,3.05
2023-02-27T06:14:39.416Z,2.50
2023-02-27T06:17:06.082Z,1.67
2023-02-27T06:19:32.564Z,1.70
2023-02-27T06:21:59.043Z,2.03
2023-02-27T06:24:26.815Z,1.73
2023-02-27T06:26:53.549Z,2.05
2023-02-27T06:29:19.995Z,1.92
2023-02-27T06:31:46.585Z,3.65
2023-02-27T06:34:13.077Z,1.75
2023-02-27T06:36:39.628Z,1.23
2023-02-27T06:39:06.809Z,1.45
2023-02-27T06:41:33.506Z,1.63
2023-02-27T06:44:00.067Z,1.40
2023-02-27T06:46:27.085Z,2.45
2023-02-27T06:48:53.776Z,1.80
2023-02-27T06:51:20.324Z,3.42
2023-02-27T06:53:46.824Z,2.80
2023-02-27T06:56:13.284Z,2.00
2023-02-27T06:58:39.845Z,2.65
2023-02-27T07:01:06.500Z,2.63
2023-02-27T07:03:33.006Z,2.15
2023-02-27T07:05:59.760Z,2.72
2023-02-27T07:08:26.359Z,2.05
2023-02-27T07:10:52.851Z,2.65
2023-02-27T07:13:19.926Z,2.83
2023-02-27T07:15:46.815Z,1.38
2023-02-27T07:18:13.356Z,2.22
2023-02-27T07:20:40.355Z,2.08
2023-02-27T07:23:06.904Z,1.73
2023-02-27T07:25:33.396Z,3.42
2023-02-27T07:27:59.894Z,1.63
2023-02-27T07:30:26.782Z,2.00
2023-02-27T07:32:53.278Z,1.23
2023-02-27T07:35:19.878Z,1.77
2023-02-27T07:37:47.237Z,3.08
2023-02-27T07:40:14.381Z,1.95
2023-02-27T07:42:40.966Z,2.22
2023-02-27T07:45:07.833Z,1.73
2023-02-27T07:47:34.363Z,2.05
2023-02-27T07:50:00.885Z,2.45
2023-02-27T07:52:27.407Z,2.00
2023-02-27T07:54:53.917Z,1.70
2023-02-27T07:57:20.428Z,6.05
2023-02-27T07:59:48.526Z,3.42
2023-02-27T08:02:15.643Z,1.85
2023-02-27T08:04:42.291Z,1.50
2023-02-27T08:07:08.833Z,2.05
2023-02-27T08:09:35.552Z,1.67
2023-02-27T08:12:03.044Z,2.28
2023-02-27T08:14:29.625Z,1.95
2023-02-27T08:16:56.105Z,1.90
2023-02-27T08:19:22.540Z,3.40
2023-02-27T08:21:49.057Z,1.98
2023-02-27T08:24:15.532Z,1.75
2023-02-27T08:26:42.066Z,1.83
2023-02-27T08:29:08.581Z,1.98
2023-02-27T08:31:35.154Z,2.40
2023-02-27T08:34:09.880Z,2.00
2023-02-27T08:36:37.409Z,1.17
2023-02-27T08:39:04.414Z,1.65
2023-02-27T08:41:30.943Z,1.83
2023-02-27T08:43:57.473Z,1.33
2023-02-27T08:46:23.958Z,1.20
2023-02-27T08:48:50.454Z,2.13
2023-02-27T08:51:17.032Z,4.45
2023-02-27T08:53:43.483Z,1.42
2023-02-27T08:56:10.118Z,1.02
2023-02-27T08:58:36.606Z,2.30
2023-02-27T09:01:03.735Z,1.60
2023-02-27T09:03:30.876Z,1.63
2023-02-27T09:05:57.426Z,1.60
2023-02-27T09:08:23.914Z,2.70
2023-02-27T09:10:50.522Z,1.95
2023-02-27T09:13:17.262Z,3.10
2023-02-27T09:15:43.739Z,1.17
2023-02-27T09:18:10.242Z,1.50
2023-02-27T09:20:36.800Z,1.77
2023-02-27T09:23:03.938Z,1.52
2023-02-27T09:25:30.526Z,2.10
2023-02-27T09:27:57.083Z,2.15
2023-02-27T09:30:23.884Z,2.17
2023-02-27T09:32:50.954Z,1.75
2023-02-27T09:35:17.764Z,1.50
2023-02-27T09:37:44.437Z,2.67
2023-02-27T09:40:19.927Z,1.30
2023-02-27T09:42:47.767Z,1.63
2023-02-27T09:45:39.198Z,1.65
2023-02-27T09:48:08.411Z,2.20
2023-02-27T09:50:39.786Z,1.40
2023-02-27T09:53:07.438Z,1.70
2023-02-27T09:55:35.749Z,2.40
2023-02-27T09:58:28.558Z,1.48
2023-02-27T10:01:04.730Z,3.40
2023-02-27T10:03:31.223Z,1.30
2023-02-27T10:06:13.030Z,0.98
2023-02-27T10:08:43.424Z,1.40
2023-02-27T10:11:12.106Z,2.53
2023-02-27T10:13:41.550Z,0.85
2023-02-27T10:16:10.647Z,2.72
2023-02-27T10:18:55.792Z,2.95
2023-02-27T10:21:25.249Z,2.47
2023-02-27T10:23:53.253Z,1.40
2023-02-27T10:26:40.362Z,2.00
2023-02-27T10:29:30.365Z,1.65
2023-02-27T10:32:10.636Z,4.35
2023-02-27T10:34:38.724Z,6.25
2023-02-27T10:37:06.412Z,26.33
2023-02-27T10:39:45.345Z,19.00
2023-02-27T10:42:12.567Z,11.63
2023-02-27T10:44:39.113Z,16.85
2023-02-27T10:47:05.654Z,27.85
2023-02-27T10:49:33.721Z,39.00
2023-02-27T10:52:08.425Z,20.67
2023-02-27T10:54:35.278Z,16.23
2023-02-27T10:57:02.860Z,15.25
2023-02-27T10:59:33.868Z,14.52
2023-02-27T11:02:02.093Z,16.23
2023-02-27T11:04:37.485Z,9.05
2023-02-27T11:07:09.287Z,8.70
2023-02-27T11:09:36.270Z,11.18
2023-02-27T11:12:23.973Z,22.55
2023-02-27T11:14:54.701Z,103.22
2023-02-27T11:17:23.077Z,27.48
2023-02-27T11:19:49.931Z,20.83
2023-02-27T11:22:18.590Z,23.38
2023-02-27T11:24:45.063Z,17.60
2023-02-27T11:27:26.607Z,21.05
2023-02-27T11:30:00.168Z,13.23
2023-02-27T11:32:31.107Z,17.52
2023-02-27T11:34:57.660Z,15.82
2023-02-27T11:37:28.683Z,10.93
2023-02-27T11:40:01.069Z,16.52
2023-02-27T11:42:34.736Z,7.93
2023-02-27T11:45:07.002Z,12.27
2023-02-27T11:47:35.160Z,12.05
2023-02-27T11:50:22.427Z,5.05
2023-02-27T11:53:21.319Z,9.55
2023-02-27T11:55:48.259Z,7.78
2023-02-27T11:58:19.055Z,5.70
2023-02-27T12:00:49.310Z,5.35
2023-02-27T12:03:21.524Z,9.32
2023-02-27T12:05:49.739Z,9.77
2023-02-27T12:08:18.783Z,7.47
2023-02-27T12:10:45.655Z,6.75
2023-02-27T12:13:16.330Z,7.60
2023-02-27T12:15:55.908Z,5.53
2023-02-27T12:18:28.394Z,8.43
2023-02-27T12:20:59.361Z,7.18
2023-02-27T12:23:38.043Z,9.73
2023-02-27T12:26:22.424Z,5.07
2023-02-27T12:28:48.885Z,5.60
2023-02-27T12:31:24.662Z,5.07
2023-02-27T12:33:51.226Z,3.20
2023-02-27T12:36:17.748Z,5.15
2023-02-27T12:38:44.296Z,5.60
2023-02-27T12:41:10.744Z,5.10
2023-02-27T12:43:46.716Z,2.72
2023-02-27T12:46:21.214Z,4.55
2023-02-27T12:49:00.782Z,5.05
2023-02-27T12:51:56.404Z,5.55
2023-02-27T12:54:27.587Z,4.93
2023-02-27T12:56:54.071Z,4.65
2023-02-27T12:59:35.992Z,3.70
2023-02-27T13:02:12.184Z,5.05
2023-02-27T13:04:46.671Z,3.00
2023-02-27T13:07:45.647Z,4.30
2023-02-27T13:10:16.868Z,2.95
2023-02-27T13:12:46.753Z,3.60
2023-02-27T13:15:19.848Z,2.78
2023-02-27T13:17:52.447Z,10.02
2023-02-27T13:20:22.414Z,3.25
2023-02-27T13:23:01.648Z,3.33
2023-02-27T13:25:28.671Z,3.47
2023-02-27T13:27:57.497Z,4.32
2023-02-27T13:30:26.822Z,2.35
2023-02-27T13:33:01.013Z,3.90
2023-02-27T13:35:33.127Z,3.53
2023-02-27T13:38:05.492Z,4.53
2023-02-27T13:40:41.253Z,4.80
2023-02-27T13:43:28.238Z,3.58
2023-02-27T13:45:57.165Z,5.63
2023-02-27T13:48:35.991Z,4.68
2023-02-27T13:51:02.519Z,3.70
2023-02-27T13:53:29.597Z,4.43
2023-02-27T13:56:18.918Z,5.28
2023-02-27T13:58:45.531Z,4.20
2023-02-27T14:01:16.648Z,2.83
2023-02-27T14:03:52.039Z,4.47
2023-02-27T14:06:18.770Z,3.22
2023-02-27T14:08:49.783Z,3.83
2023-02-27T14:11:22.998Z,3.00
2023-02-27T14:13:54.859Z,4.03
2023-02-27T14:16:44.198Z,2.90
2023-02-27T14:19:17.285Z,3.00
2023-02-27T14:21:56.426Z,2.30
2023-02-27T14:24:28.694Z,3.45
2023-02-27T14:26:55.862Z,3.58
2023-02-27T14:29:33.537Z,1.85
2023-02-27T14:32:02.017Z,3.90
2023-02-27T14:34:28.606Z,2.33
2023-02-27T14:36:57.112Z,3.90
2023-02-27T14:39:28.759Z,2.42
2023-02-27T14:42:10.625Z,6.68
2023-02-27T14:44:38.735Z,41.58
2023-02-27T14:47:05.718Z,31.35
2023-02-27T14:49:33.079Z,10.25
2023-02-27T14:52:12.728Z,6.90
2023-02-27T14:54:39.200Z,9.05
2023-02-27T14:57:06.407Z,4.15
2023-02-27T14:59:36.881Z,4.57
2023-02-27T15:02:04.502Z,3.28
2023-02-27T15:04:33.125Z,4.95
2023-02-27T15:07:00.518Z,3.50
2023-02-27T15:09:35.074Z,5.10
2023-02-27T15:12:04.318Z,4.28
2023-02-27T15:14:33.423Z,2.35
2023-02-27T15:16:59.979Z,3.13
2023-02-27T15:19:28.631Z,6.07
2023-02-27T15:22:05.067Z,4.75
2023-02-27T15:24:47.763Z,3.60
2023-02-27T15:27:21.255Z,2.75
2023-02-27T15:29:51.838Z,3.17
2023-02-27T15:32:35.542Z,1.90
2023-02-27T15:35:03.911Z,3.83
2023-02-27T15:37:31.712Z,3.83
2023-02-27T15:39:59.163Z,3.58
2023-02-27T15:42:27.520Z,4.13
2023-02-27T15:44:54.877Z,4.03
2023-02-27T15:47:26.502Z,2.30
2023-02-27T15:49:59.529Z,3.22
2023-02-27T15:52:27.794Z,12.35
2023-02-27T15:55:05.760Z,2.90
2023-02-27T15:57:32.983Z,15.57
2023-02-27T16:00:00.577Z,57.40
2023-02-27T16:02:47.393Z,54.47
2023-02-27T16:05:18.016Z,30.58
2023-02-27T16:07:44.867Z,24.13
2023-02-27T16:10:20.003Z,89.72
2023-02-27T16:12:46.695Z,56.63
2023-02-27T16:15:24.636Z,65.47
2023-02-27T16:17:58.693Z,64.82
2023-02-27T16:20:30.164Z,45.42
2023-02-27T16:23:04.277Z,119.70
2023-02-27T16:25:30.892Z,37.30
2023-02-27T16:27:57.582Z,33.38
2023-02-27T16:30:24.355Z,31.08
2023-02-27T16:32:56.733Z,22.40
2023-02-27T16:35:23.615Z,23.60
2023-02-27T16:37:50.726Z,23.08
2023-02-27T16:40:19.650Z,24.15
2023-02-27T16:42:46.484Z,22.42
2023-02-27T16:45:20.304Z,16.73
2023-02-27T16:47:50.485Z,16.88
2023-02-27T16:50:16.936Z,16.38
2023-02-27T16:52:43.815Z,14.77
2023-02-27T16:55:10.446Z,12.88
2023-02-27T16:57:37.269Z,12.02
2023-02-27T17:00:07.596Z,10.63
2023-02-27T17:02:34.315Z,15.18
2023-02-27T17:05:01.625Z,9.77
2023-02-27T17:07:28.179Z,12.23
2023-02-27T17:09:54.651Z,12.65
2023-02-27T17:12:21.189Z,14.55
2023-02-27T17:14:47.966Z,12.15
2023-02-27T17:17:14.509Z,9.55
2023-02-27T17:19:41.035Z,13.00
2023-02-27T17:22:07.491Z,10.98
2023-02-27T17:24:34.012Z,10.55
2023-02-27T17:27:00.573Z,9.35
2023-02-27T17:29:27.118Z,8.45
2023-02-27T17:31:53.600Z,8.38
2023-02-27T17:34:20.257Z,7.50
2023-02-27T17:36:48.132Z,9.38
2023-02-27T17:39:15.667Z,9.10
2023-02-27T17:41:42.900Z,9.50
2023-02-27T17:44:10.581Z,7.32
2023-02-27T17:46:37.498Z,7.45
2023-02-27T17:49:04.108Z,8.70
2023-02-27T17:51:31.048Z,7.50
2023-02-27T17:53:58.029Z,7.25
2023-02-27T17:56:24.561Z,6.15
2023-02-27T17:58:51.409Z,8.55
2023-02-27T18:01:21.498Z,9.27
2023-02-27T18:03:49.414Z,6.82
2023-02-27T18:06:16.159Z,5.40
2023-02-27T18:08:42.732Z,8.10
2023-02-27T18:11:13.457Z,7.00
2023-02-27T18:13:40.567Z,6.70
2023-02-27T18:16:07.746Z,7.82
2023-02-27T18:18:37.693Z,9.43
2023-02-27T18:21:05.962Z,6.47
2023-02-27T18:23:32.525Z,8.07
2023-02-27T18:26:27.119Z,5.72
2023-02-27T18:29:02.301Z,5.35
2023-02-27T18:31:50.318Z,8.30
2023-02-27T18:34:16.899Z,5.20
2023-02-27T18:36:43.487Z,5.35
2023-02-27T18:39:10.088Z,6.35
2023-02-27T18:41:36.981Z,3.97
2023-02-27T18:44:04.149Z,8.95
2023-02-27T18:46:31.311Z,6.30
2023-02-27T18:48:58.348Z,4.45
2023-02-27T18:51:25.050Z,4.20
2023-02-27T18:53:51.837Z,4.70
2023-02-27T18:56:20.397Z,4.63
2023-02-27T18:58:46.975Z,6.75
2023-02-27T19:01:24.547Z,4.30
2023-02-27T19:03:51.719Z,4.18
2023-02-27T19:06:18.229Z,4.75
2023-02-27T19:08:45.362Z,6.75
2023-02-27T19:11:22.229Z,5.53
2023-02-27T19:13:48.818Z,4.70
2023-02-27T19:16:15.408Z,6.82
2023-02-27T19:18:41.925Z,4.22
2023-02-27T19:21:08.408Z,4.50
2023-02-27T19:23:36.277Z,3.13
2023-02-27T19:26:02.907Z,3.70
2023-02-27T19:28:29.457Z,3.75
2023-02-27T19:30:57.584Z,3.88
2023-02-27T19:33:24.343Z,5.38
2023-02-27T19:35:51.002Z,4.00
2023-02-27T19:38:17.557Z,3.78
2023-02-27T19:40:44.108Z,6.15
2023-02-27T19:43:10.903Z,10.27
2023-02-27T19:45:40.099Z,19.25
2023-02-27T19:48:06.817Z,18.85
2023-02-27T19:50:34.567Z,14.43
2023-02-27T19:53:01.067Z,16.63
2023-02-27T19:55:27.808Z,18.92
2023-02-27T19:57:54.807Z,17.90
2023-02-27T20:00:21.921Z,14.20
2023-02-27T20:02:48.517Z,22.42
2023-02-27T20:05:15.006Z,23.88
2023-02-27T20:07:42.457Z,21.30
2023-02-27T20:10:09.686Z,26.98
2023-02-27T20:12:36.218Z,17.52
2023-02-27T20:15:08.751Z,21.30
2023-02-27T20:17:35.806Z,21.05
2023-02-27T20:20:05.157Z,22.48
2023-02-27T20:22:33.167Z,21.63
2023-02-27T20:25:01.972Z,40.72
2023-02-27T20:27:35.577Z,33.47
2023-02-27T20:30:03.304Z,11.50
2023-02-27T20:32:29.927Z,7.68
2023-02-27T20:34:57.027Z,6.68
2023-02-27T20:37:23.535Z,3.22
2023-02-27T20:39:50.016Z,18.67
2023-02-27T20:42:16.631Z,3.75
2023-02-27T20:44:43.252Z,5.25
2023-02-27T20:47:09.757Z,2.65
2023-02-27T20:49:36.605Z,4.65
2023-02-27T20:52:03.200Z,3.90
2023-02-27T20:54:29.699Z,5.70
2023-02-27T20:56:56.490Z,6.20
2023-02-27T20:59:25.211Z,3.20
2023-02-27T21:01:52.345Z,2.05
2023-02-27T21:04:20.815Z,3.53
2023-02-27T21:06:47.410Z,3.72
2023-02-27T21:09:14.321Z,7.43
2023-02-27T21:11:42.651Z,3.05
2023-02-27T21:14:10.941Z,3.38
2023-02-27T21:16:38.564Z,4.00
2023-02-27T21:19:06.417Z,6.80
2023-02-27T21:21:34.525Z,2.38
2023-02-27T21:24:01.687Z,7.70
2023-02-27T21:26:30.469Z,2.58
2023-02-27T21:28:58.629Z,5.25
2023-02-27T21:31:26.361Z,3.13
2023-02-27T21:33:53.150Z,3.67
2023-02-27T21:36:30.684Z,4.30
2023-02-27T21:39:02.305Z,2.33
2023-02-27T21:41:30.071Z,6.07
2023-02-27T21:44:00.410Z,2.63
2023-02-27T21:46:27.645Z,2.50
2023-02-27T21:48:54.326Z,6.15
2023-02-27T21:51:36.772Z,5.43
2023-02-27T21:54:05.688Z,3.55
2023-02-27T21:56:32.225Z,3.85
2023-02-27T21:59:02.183Z,2.88
2023-02-27T22:01:29.504Z,5.03
2023-02-27T22:03:56.167Z,2.85
2023-02-27T22:06:23.606Z,3.70
2023-02-27T22:08:56.926Z,3.72
2023-02-27T22:11:24.048Z,2.47
2023-02-27T22:13:50.548Z,2.90
2023-02-27T22:16:17.164Z,4.78
2023-02-27T22:18:43.676Z,3.88
2023-02-27T22:21:11.586Z,4.18
2023-02-27T22:23:38.348Z,3.22
2023-02-27T22:26:06.617Z,4.45
2023-02-27T22:28:34.648Z,4.93
2023-02-27T22:31:11.791Z,3.83
2023-02-27T22:33:38.690Z,2.20
2023-02-27T22:36:06.466Z,4.00
2023-02-27T22:38:33.058Z,3.38
2023-02-27T22:41:06.701Z,2.47
2023-02-27T22:43:34.105Z,3.83
2023-02-27T22:46:01.207Z,4.55
2023-02-27T22:48:28.210Z,4.30
2023-02-27T22:51:03.209Z,5.28
2023-02-27T22:53:30.662Z,3.17
2023-02-27T22:55:57.318Z,3.08
2023-02-27T22:58:24.308Z,5.00
2023-02-27T23:00:51.308Z,3.90
2023-02-27T23:03:17.797Z,4.07
2023-02-27T23:05:48.078Z,4.85
2023-02-27T23:08:14.771Z,2.42
2023-02-27T23:10:41.555Z,2.78
2023-02-27T23:13:08.317Z,4.07
2023-02-27T23:15:35.446Z,2.83
2023-02-27T23:18:01.986Z,3.35
2023-02-27T23:20:28.439Z,3.17
2023-02-27T23:22:54.813Z,3.55
2023-02-27T23:25:21.242Z,3.13
2023-02-27T23:27:47.715Z,2.53
2023-02-27T23:30:14.486Z,3.33
2023-02-27T23:32:43.543Z,2.42
2023-02-27T23:35:11.033Z,3.55
2023-02-27T23:37:38.009Z,3.30
2023-02-27T23:40:06.646Z,4.38
2023-02-27T23:42:33.272Z,2.95
2023-02-27T23:45:12.509Z,3.67
2023-02-27T23:47:41.694Z,6.20
2023-02-27T23:50:08.716Z,2.85
2023-02-27T23:52:35.122Z,3.17
2023-02-27T23:55:01.670Z,3.97
2023-02-27T23:57:28.094Z,4.35
2023-02-27T23:59:54.697Z,4.63
